Detall de PIREP

Printer-friendly versionPDF version

[2013/12/15 07:59:00]
Flight IATA:CT3239
Pilot Number:012
Company ICAO:CAT
Aircraft Type:F70/A
PAX:26
Aircraft Registration:PFJ
Departing Airport: EVRA
Destination Airport: LEPA
Alternate Airport:LEBL
Online: VATSIM
Route:ASKOR/M076F340 L738 RUSNE R801 GOMED M994 ODLOT P861 RASAN UP861 RUDAP UP31 DOSEL UM736 BZO/M076F350 UM984 PADKO UY38 VATIR UN852 VERSO UL129 LUNIK
Flight Level:F350
No Slew and time accel
No pause
Crash detect
Detect pilot in Cockpit between each 30 and 45 minutes
07:59 Zero fuel Weight: 60718 Lbs, Fuel Weight: 22473 Lbs
07:59 VATSIM:EVRA 150720Z 16012KT 9999 -RASN OVC011 00/M01 Q1022 R18/190060 TEMPO OVC007
07:59 VATSIM:LEPA 150730Z 00000KT 9999 FEW001 03/03 Q1033 NOSIG
08:00 VOICE CATALONIAN
08:01 Parking Brakes off
08:06 Take-off
08:06 Take off Weight: 82852 Lbs
08:06 Wind: 153º @ 012 Knots Heading: 183º
08:06 POS N56º 55´ 21´´ E023º 58´ 15´´
08:06 Gear Up: 147 Knots
08:06 Flaps:2 at 147 Knots
08:07 Flaps:1 at 170 Knots
08:07 Flaps:0 at 190 Knots
08:21 Wind:289º@022 Knots Heading: 213º Ground Speed: 319 Knots Altitude 30452 ft
08:36 Wind:346º@062 Knots Heading: 240º Ground Speed: 439 Knots Altitude 34317 ft
08:51 Wind:336º@051 Knots Heading: 242º Ground Speed: 435 Knots Altitude 34340 ft
09:06 Wind:350º@048 Knots Heading: 213º Ground Speed: 464 Knots Altitude 34409 ft
09:21 Wind:345º@048 Knots Heading: 230º Ground Speed: 450 Knots Altitude 34445 ft
09:36 Wind:337º@054 Knots Heading: 212º Ground Speed: 459 Knots Altitude 34566 ft
09:51 Wind:342º@062 Knots Heading: 185º Ground Speed: 484 Knots Altitude 34606 ft
10:03 TOC
10:03 Fuel Weight: 12632 Lb
10:06 Wind:333º@058 Knots Heading: 250º Ground Speed: 423 Knots Altitude 35547 ft
10:21 Wind:336º@041 Knots Heading: 217º Ground Speed: 450 Knots Altitude 35580 ft
10:36 Wind:347º@038 Knots Heading: 255º Ground Speed: 433 Knots Altitude 35593 ft
10:51 Wind:332º@033 Knots Heading: 223º Ground Speed: 446 Knots Altitude 35593 ft
11:02 TOD
11:02 Fuel Weight: 8408 Lb
11:06 Wind:355º@026 Knots Heading: 203º Ground Speed: 428 Knots Altitude 28513 ft
11:21 Wind:289º@004 Knots Heading: 285º Ground Speed: 237 Knots Altitude 4494 ft
11:24 Flaps:1 at 203 Knots
11:24 Gear Down: 181 Knots
11:25 Flaps:2 at 163 Knots
11:26 Flaps:3 at 165 Knots
11:28 Flaps:4 at 143 Knots
11:29 TouchDown:Rate -214 ft/min Speed: 108 Knots
11:29 Flaps:3 at 42 Knots
11:29 Flaps:0 at 39 Knots
11:29 VATSIM:LEPA 151100Z 23006KT 190V260 9999 FEW018 16/12 Q1033 NOSIG
11:29 Land
11:29 Wind:209º@004 Knots
11:29 Heading: 238º
11:29 Flight Duration: 03:23
11:29 Landing Weight: 67993 Lbs
11:29 POS N39º 32´ 56´´ E002º 44´ 53´´
11:33 Parking brakes on
11:33 Block to Block Duration: 03:32
11:33 Final Fuel: 7138 Lbls
11:33 Spent Fuel: 15335 Lbls
11:33 Flight Length: 1405 NM
11:33 TOD Land Length: 133 NM

Exportar CSV

Powered by Drupal - Modified by Danger4k